Isla Nueva, Argentina
Current Conditions -  °F | °C
As of 8:00 AM on Saturday 22 Nov 2014 (Local Time) from SAWH Reporting Station
Broken Clouds Broken Clouds  
Wind Chill:   Ceiling: 10000
Heat Index:   Visibility: 6mi
Dew Point: -3°   Wind: 5mph
Humidity: 61%   Direction: 320°NW
Pressure: 29.53"   Gusts: NA
Location:  55.25°S, 66.49°W
Report Text: SAWH 221100Z 32004KT 9999 SCT035 BKN10004/M03 Q1000
Loading
Personal Weather Stations






























Interactive Weather Map New forecast layout! Learn more

10-Day Weather Forecast

Advertisements
Track Severe Weather on mobile